»·PEaware :: FDX11 KLAX-KSFO

FDX11 :: KLAX-KSFO

FLIGHT INFORMATION

Flight Status: Arrived
Operator:
Federal Express
More flights by this operator :: More flights under this callsign
Pilot: William B. (10095)
Aircraft: BOEING 777-200
(B772)
More flights by this aircraft type
Origin: KLAX Los Angeles Intl
United States
Destination: KSFO San Francisco Intl
United States
More flights between these airports :: More routes between these airports
Route: +DARRK1 STOKD SERFR SERFR2
File this flight plan on PilotEdge
Remarks: P3d V4 *testing sim may crash* PMDG 777
Altitude:
(Current/Filed)
340ft
Speed:
(Current/Filed)
180kts
Departed: 31-Jul-17 12:09 PM
Arrived: 31-Jul-17 01:01 PM
Distance/Time
Traveled:
294nm/0:52
Distance/Time
To Go:
Arrived

Flight Plot

Page will automatically refresh every two minutes.


Map Options




Map Legend


Flown Route
Filed Route
Departure Airport
Arrival Airport
Navaid (VOR, NDB)
Fix

Horizontal Profiles

Position Reports

Time Latitude Longitude Heading Altitude Ground
Speed
31-Jul-17 11:53 33.934054 -118.384646 140 139ft 0kts
31-Jul-17 11:54 33.934054 -118.384646 140 139ft 0kts
31-Jul-17 11:55 33.934054 -118.384646 140 139ft 0kts
31-Jul-17 11:56 33.934054 -118.384646 140 139ft 0kts
31-Jul-17 11:57 33.934054 -118.384646 140 139ft 0kts
31-Jul-17 11:58 33.934054 -118.384646 140 139ft 0kts
31-Jul-17 11:59 33.934054 -118.384646 140 139ft 0kts
31-Jul-17 12:00 33.934054 -118.384646 140 139ft 0kts
31-Jul-17 12:01 33.934054 -118.384646 140 139ft 0kts
31-Jul-17 12:02 33.934054 -118.384646 140 139ft 0kts
31-Jul-17 12:03 33.934054 -118.384646 140 139ft 0kts
31-Jul-17 12:04 33.934054 -118.384646 140 139ft 0kts
31-Jul-17 12:05 33.934563 -118.385161 127 139ft 2kts
31-Jul-17 12:06 33.934627 -118.385283 116 139ft 0kts
31-Jul-17 12:07 33.934909 -118.385124 349 139ft 0kts
31-Jul-17 12:08 33.934909 -118.385124 349 139ft 0kts
31-Jul-17 12:09 33.935961 -118.384484 85 139ft 8kts
31-Jul-17 12:10 33.936269 -118.382959 13 139ft 0kts
31-Jul-17 12:11 33.937249 -118.384299 253 139ft 10kts
31-Jul-17 12:12 33.936791 -118.388520 262 139ft 94kts
31-Jul-17 12:13 33.930923 -118.447804 262 2567ft 219kts
31-Jul-17 12:14 33.926023 -118.533450 266 4928ft 275kts
31-Jul-17 12:15 33.917977 -118.625971 266 6751ft 284kts
31-Jul-17 12:16 33.917399 -118.723273 271 10410ft 304kts
31-Jul-17 12:17 33.922787 -118.836914 283 12080ft 380kts
31-Jul-17 12:18 33.967507 -118.956147 313 13004ft 393kts
31-Jul-17 12:19 34.068555 -119.003172 354 15878ft 401kts
31-Jul-17 12:20 34.168327 -119.056849 309 18913ft 422kts
31-Jul-17 12:21 34.231127 -119.180488 302 21715ft 438kts
31-Jul-17 12:22 34.296125 -119.306972 303 23079ft 445kts
31-Jul-17 12:23 34.360970 -119.434043 303 23075ft 444kts
31-Jul-17 12:24 34.432244 -119.556432 313 24202ft 447kts
31-Jul-17 12:25 34.519497 -119.666058 316 26436ft 458kts
31-Jul-17 12:26 34.609985 -119.777907 316 28607ft 472kts
31-Jul-17 12:27 34.703280 -119.893014 316 30895ft 480kts
31-Jul-17 12:28 34.796869 -120.009064 315 33154ft 481kts
31-Jul-17 12:29 34.874870 -120.106127 316 34084ft 481kts
31-Jul-17 12:30 34.968475 -120.222947 315 34095ft 481kts
31-Jul-17 12:31 35.061511 -120.339943 315 34102ft 481kts
31-Jul-17 12:32 35.158140 -120.452994 319 34094ft 480kts
31-Jul-17 12:33 35.256825 -120.562586 319 34090ft 479kts
31-Jul-17 12:34 35.355081 -120.672756 319 34090ft 479kts
31-Jul-17 12:35 35.453277 -120.783999 318 34092ft 479kts
31-Jul-17 12:36 35.555821 -120.887629 325 34090ft 478kts
31-Jul-17 12:37 35.660389 -120.982824 324 33767ft 449kts
31-Jul-17 12:38 35.757098 -121.073038 324 32623ft 428kts
31-Jul-17 12:39 35.850492 -121.159624 324 31232ft 413kts
31-Jul-17 12:40 35.940683 -121.244290 323 29851ft 400kts
31-Jul-17 12:41 36.027923 -121.326542 323 28322ft 391kts
31-Jul-17 12:42 36.115566 -121.403593 328 26769ft 383kts
31-Jul-17 12:43 36.205849 -121.472239 328 25233ft 377kts
31-Jul-17 12:44 36.293945 -121.540598 328 23704ft 371kts
31-Jul-17 12:45 36.380537 -121.608665 328 22172ft 366kts
31-Jul-17 12:46 36.466225 -121.676230 328 20660ft 362kts
31-Jul-17 12:47 36.549796 -121.741942 328 20114ft 342kts
31-Jul-17 12:48 36.627452 -121.803505 328 19070ft 325kts
31-Jul-17 12:49 36.703028 -121.863586 328 17685ft 320kts
31-Jul-17 12:50 36.783799 -121.906489 346 16272ft 316kts
31-Jul-17 12:51 36.869410 -121.929897 348 14913ft 312kts
31-Jul-17 12:52 36.953706 -121.953581 346 13599ft 309kts
31-Jul-17 12:53 37.035511 -121.985098 343 12316ft 306kts
31-Jul-17 12:54 37.116419 -122.017115 343 11097ft 300kts
31-Jul-17 12:55 37.194734 -122.047884 343 9743ft 291kts
31-Jul-17 12:56 37.271106 -122.077918 343 8242ft 282kts
31-Jul-17 12:57 37.344957 -122.106954 343 6788ft 275kts
31-Jul-17 12:58 37.416875 -122.135208 342 5412ft 265kts
31-Jul-17 12:59 37.485465 -122.160546 346 4129ft 251kts
31-Jul-17 13:00 37.544213 -122.198381 304 3333ft 241kts
31-Jul-17 13:01 37.572460 -122.265291 294 2157ft 207kts
31-Jul-17 13:02 37.598533 -122.327626 296 632ft 179kts
31-Jul-17 13:03 37.616287 -122.369212 298 26ft 68kts
31-Jul-17 13:04 37.619660 -122.377221 297 26ft 17kts
31-Jul-17 13:05 37.622163 -122.383171 297 26ft 25kts
31-Jul-17 13:06 37.625368 -122.389591 340 26ft 19kts
31-Jul-17 13:07 37.629981 -122.392083 336 26ft 16kts
31-Jul-17 13:08 37.632866 -122.391739 342 26ft 16kts
31-Jul-17 13:09 37.635385 -122.387934 46 26ft 13kts
31-Jul-17 13:10 37.635650 -122.387112 69 26ft 0kts
31-Jul-17 13:11 37.635650 -122.387112 69 26ft 0kts
31-Jul-17 13:12 37.635650 -122.387112 69 26ft 0kts
31-Jul-17 13:13 37.635650 -122.387112 69 26ft 0kts
31-Jul-17 13:14 37.635650 -122.387112 69 26ft 0kts
31-Jul-17 13:15 37.635650 -122.387112 69 26ft 0kts
31-Jul-17 13:16 37.635650 -122.387112 69 26ft 0kts
31-Jul-17 13:17 37.635650 -122.387112 69 26ft 0kts
31-Jul-17 13:18 37.635650 -122.387112 69 26ft 0kts

Navigation Log

Ident Type
Flight plan parsing failed, navigation log unavailable